sensor_id;sensor_type;location;lat;lon;timestamp;P1;durP1;ratioP1;P2;durP2;ratioP2
52512;SDS011;38422;53.172;6.974;2022-12-18T00:02:16;90.05;;;32.95;;
52512;SDS011;38422;53.172;6.974;2022-12-18T00:04:42;80.10;;;32.45;;
52512;SDS011;38422;53.172;6.974;2022-12-18T00:07:07;81.93;;;31.73;;
52512;SDS011;38422;53.172;6.974;2022-12-18T00:09:33;78.55;;;30.50;;
52512;SDS011;38422;53.172;6.974;2022-12-18T00:11:59;74.72;;;29.63;;
52512;SDS011;38422;53.172;6.974;2022-12-18T00:14:25;83.57;;;32.55;;
52512;SDS011;38422;53.172;6.974;2022-12-18T00:16:51;70.90;;;27.17;;
52512;SDS011;38422;53.172;6.974;2022-12-18T00:19:16;81.07;;;30.70;;
52512;SDS011;38422;53.172;6.974;2022-12-18T00:21:42;80.97;;;31.52;;
52512;SDS011;38422;53.172;6.974;2022-12-18T00:24:09;72.82;;;29.15;;
52512;SDS011;38422;53.172;6.974;2022-12-18T00:26:36;75.97;;;28.52;;
52512;SDS011;38422;53.172;6.974;2022-12-18T00:29:08;75.90;;;30.15;;
52512;SDS011;38422;53.172;6.974;2022-12-18T00:31:36;73.90;;;29.10;;
52512;SDS011;38422;53.172;6.974;2022-12-18T00:34:02;70.53;;;27.05;;
52512;SDS011;38422;53.172;6.974;2022-12-18T00:36:29;71.72;;;27.17;;
52512;SDS011;38422;53.172;6.974;2022-12-18T00:38:58;71.85;;;28.15;;
52512;SDS011;38422;53.172;6.974;2022-12-18T00:41:25;64.05;;;25.85;;
52512;SDS011;38422;53.172;6.974;2022-12-18T00:44:10;74.10;;;28.75;;
52512;SDS011;38422;53.172;6.974;2022-12-18T00:46:38;67.68;;;27.48;;
52512;SDS011;38422;53.172;6.974;2022-12-18T00:49:04;66.45;;;27.00;;
52512;SDS011;38422;53.172;6.974;2022-12-18T00:51:30;76.97;;;29.08;;
52512;SDS011;38422;53.172;6.974;2022-12-18T00:53:56;69.18;;;26.63;;
52512;SDS011;38422;53.172;6.974;2022-12-18T00:56:21;72.40;;;27.52;;
52512;SDS011;38422;53.172;6.974;2022-12-18T00:58:48;68.65;;;26.17;;
52512;SDS011;38422;53.172;6.974;2022-12-18T01:01:15;69.65;;;25.83;;
52512;SDS011;38422;53.172;6.974;2022-12-18T01:03:40;66.10;;;25.23;;
52512;SDS011;38422;53.172;6.974;2022-12-18T01:06:07;74.53;;;25.83;;
52512;SDS011;38422;53.172;6.974;2022-12-18T01:08:34;69.68;;;26.95;;
52512;SDS011;38422;53.172;6.974;2022-12-18T01:11:00;73.00;;;26.17;;
52512;SDS011;38422;53.172;6.974;2022-12-18T01:13:31;69.00;;;27.48;;
52512;SDS011;38422;53.172;6.974;2022-12-18T01:15:57;75.75;;;26.98;;
52512;SDS011;38422;53.172;6.974;2022-12-18T01:18:24;74.47;;;28.23;;
52512;SDS011;38422;53.172;6.974;2022-12-18T01:20:50;75.10;;;27.38;;
52512;SDS011;38422;53.172;6.974;2022-12-18T01:23:15;74.38;;;27.95;;
52512;SDS011;38422;53.172;6.974;2022-12-18T01:25:41;68.03;;;27.35;;
52512;SDS011;38422;53.172;6.974;2022-12-18T01:28:07;76.07;;;26.55;;
52512;SDS011;38422;53.172;6.974;2022-12-18T01:30:32;63.00;;;23.42;;
52512;SDS011;38422;53.172;6.974;2022-12-18T01:32:58;74.65;;;28.83;;
52512;SDS011;38422;53.172;6.974;2022-12-18T01:35:23;74.85;;;27.05;;
52512;SDS011;38422;53.172;6.974;2022-12-18T01:37:49;65.18;;;27.20;;
52512;SDS011;38422;53.172;6.974;2022-12-18T01:40:19;68.10;;;27.63;;
52512;SDS011;38422;53.172;6.974;2022-12-18T01:42:48;66.10;;;25.90;;
52512;SDS011;38422;53.172;6.974;2022-12-18T01:47:56;60.45;;;23.67;;
52512;SDS011;38422;53.172;6.974;2022-12-18T01:53:06;69.07;;;27.25;;
52512;SDS011;38422;53.172;6.974;2022-12-18T01:55:40;67.53;;;27.02;;
52512;SDS011;38422;53.172;6.974;2022-12-18T01:58:12;70.85;;;28.45;;
52512;SDS011;38422;53.172;6.974;2022-12-18T02:00:38;74.07;;;27.40;;
52512;SDS011;38422;53.172;6.974;2022-12-18T02:03:03;75.25;;;29.20;;
52512;SDS011;38422;53.172;6.974;2022-12-18T02:05:33;73.15;;;28.80;;
52512;SDS011;38422;53.172;6.974;2022-12-18T02:10:58;68.15;;;26.38;;
52512;SDS011;38422;53.172;6.974;2022-12-18T02:16:36;71.15;;;29.67;;
52512;SDS011;38422;53.172;6.974;2022-12-18T02:25:03;70.55;;;28.00;;
52512;SDS011;38422;53.172;6.974;2022-12-18T02:27:40;72.13;;;28.85;;
52512;SDS011;38422;53.172;6.974;2022-12-18T02:30:09;73.75;;;29.30;;
52512;SDS011;38422;53.172;6.974;2022-12-18T02:32:43;72.20;;;29.77;;
52512;SDS011;38422;53.172;6.974;2022-12-18T02:35:15;78.60;;;29.60;;
52512;SDS011;38422;53.172;6.974;2022-12-18T02:37:44;71.28;;;29.75;;
52512;SDS011;38422;53.172;6.974;2022-12-18T02:42:39;75.63;;;29.10;;
52512;SDS011;38422;53.172;6.974;2022-12-18T02:45:04;69.95;;;28.50;;
52512;SDS011;38422;53.172;6.974;2022-12-18T02:47:32;76.65;;;28.42;;
52512;SDS011;38422;53.172;6.974;2022-12-18T02:53:01;74.38;;;28.52;;
52512;SDS011;38422;53.172;6.974;2022-12-18T03:01:09;67.95;;;29.20;;
52512;SDS011;38422;53.172;6.974;2022-12-18T03:04:08;67.35;;;26.73;;
52512;SDS011;38422;53.172;6.974;2022-12-18T03:06:41;66.78;;;28.30;;
52512;SDS011;38422;53.172;6.974;2022-12-18T03:09:11;68.20;;;28.05;;
52512;SDS011;38422;53.172;6.974;2022-12-18T03:11:42;71.53;;;27.95;;
52512;SDS011;38422;53.172;6.974;2022-12-18T03:14:31;63.63;;;27.63;;
52512;SDS011;38422;53.172;6.974;2022-12-18T03:16:59;68.85;;;29.05;;
52512;SDS011;38422;53.172;6.974;2022-12-18T03:19:28;71.80;;;29.58;;
52512;SDS011;38422;53.172;6.974;2022-12-18T03:21:56;67.40;;;29.17;;
52512;SDS011;38422;53.172;6.974;2022-12-18T03:24:24;72.30;;;28.58;;
52512;SDS011;38422;53.172;6.974;2022-12-18T03:26:53;77.35;;;30.05;;
52512;SDS011;38422;53.172;6.974;2022-12-18T03:31:59;74.78;;;29.65;;
52512;SDS011;38422;53.172;6.974;2022-12-18T03:34:30;76.97;;;29.58;;
52512;SDS011;38422;53.172;6.974;2022-12-18T03:36:58;65.97;;;28.00;;
52512;SDS011;38422;53.172;6.974;2022-12-18T03:39:24;67.00;;;27.50;;
52512;SDS011;38422;53.172;6.974;2022-12-18T03:42:01;69.97;;;29.67;;
52512;SDS011;38422;53.172;6.974;2022-12-18T03:44:47;62.88;;;26.10;;
52512;SDS011;38422;53.172;6.974;2022-12-18T03:51:08;59.63;;;25.38;;
52512;SDS011;38422;53.172;6.974;2022-12-18T03:56:07;54.00;;;23.67;;
52512;SDS011;38422;53.172;6.974;2022-12-18T03:58:34;48.47;;;22.13;;
52512;SDS011;38422;53.172;6.974;2022-12-18T04:01:04;50.25;;;22.50;;
52512;SDS011;38422;53.172;6.974;2022-12-18T04:03:34;45.45;;;21.50;;
52512;SDS011;38422;53.172;6.974;2022-12-18T04:06:02;46.33;;;21.55;;
52512;SDS011;38422;53.172;6.974;2022-12-18T04:08:32;38.60;;;18.48;;
52512;SDS011;38422;53.172;6.974;2022-12-18T04:11:00;43.78;;;20.67;;
52512;SDS011;38422;53.172;6.974;2022-12-18T04:13:32;45.53;;;20.73;;
52512;SDS011;38422;53.172;6.974;2022-12-18T04:16:00;43.88;;;20.17;;
52512;SDS011;38422;53.172;6.974;2022-12-18T04:18:26;36.63;;;18.67;;
52512;SDS011;38422;53.172;6.974;2022-12-18T04:20:52;38.72;;;18.65;;
52512;SDS011;38422;53.172;6.974;2022-12-18T04:23:17;42.33;;;19.67;;
52512;SDS011;38422;53.172;6.974;2022-12-18T04:25:43;38.13;;;17.95;;
52512;SDS011;38422;53.172;6.974;2022-12-18T04:28:09;43.08;;;19.58;;
52512;SDS011;38422;53.172;6.974;2022-12-18T04:30:34;37.85;;;18.35;;
52512;SDS011;38422;53.172;6.974;2022-12-18T04:33:00;41.10;;;20.15;;
52512;SDS011;38422;53.172;6.974;2022-12-18T04:35:26;37.40;;;18.33;;
52512;SDS011;38422;53.172;6.974;2022-12-18T04:37:52;40.20;;;18.63;;
52512;SDS011;38422;53.172;6.974;2022-12-18T04:40:17;38.05;;;18.20;;
52512;SDS011;38422;53.172;6.974;2022-12-18T04:42:43;39.80;;;18.30;;
52512;SDS011;38422;53.172;6.974;2022-12-18T04:45:09;37.25;;;18.20;;
52512;SDS011;38422;53.172;6.974;2022-12-18T04:47:35;38.08;;;18.30;;
52512;SDS011;38422;53.172;6.974;2022-12-18T04:50:00;39.85;;;18.52;;
52512;SDS011;38422;53.172;6.974;2022-12-18T04:52:26;39.20;;;18.83;;
52512;SDS011;38422;53.172;6.974;2022-12-18T04:54:52;42.88;;;18.95;;
52512;SDS011;38422;53.172;6.974;2022-12-18T04:57:17;41.10;;;18.95;;
52512;SDS011;38422;53.172;6.974;2022-12-18T04:59:43;37.88;;;17.80;;
52512;SDS011;38422;53.172;6.974;2022-12-18T05:02:09;39.78;;;18.52;;
52512;SDS011;38422;53.172;6.974;2022-12-18T05:04:35;40.60;;;19.70;;
52512;SDS011;38422;53.172;6.974;2022-12-18T05:07:01;38.42;;;17.73;;
52512;SDS011;38422;53.172;6.974;2022-12-18T05:09:27;39.00;;;17.33;;
52512;SDS011;38422;53.172;6.974;2022-12-18T05:11:52;39.78;;;19.50;;
52512;SDS011;38422;53.172;6.974;2022-12-18T05:14:18;40.47;;;18.42;;
52512;SDS011;38422;53.172;6.974;2022-12-18T05:16:44;36.63;;;17.15;;
52512;SDS011;38422;53.172;6.974;2022-12-18T05:19:10;39.22;;;18.40;;
52512;SDS011;38422;53.172;6.974;2022-12-18T05:21:35;38.40;;;18.15;;
52512;SDS011;38422;53.172;6.974;2022-12-18T05:24:01;37.28;;;18.35;;
52512;SDS011;38422;53.172;6.974;2022-12-18T05:26:27;37.22;;;17.50;;
52512;SDS011;38422;53.172;6.974;2022-12-18T05:28:53;36.28;;;17.90;;
52512;SDS011;38422;53.172;6.974;2022-12-18T05:31:18;36.90;;;15.27;;
52512;SDS011;38422;53.172;6.974;2022-12-18T05:33:44;37.35;;;18.35;;
52512;SDS011;38422;53.172;6.974;2022-12-18T05:36:10;37.97;;;17.55;;
52512;SDS011;38422;53.172;6.974;2022-12-18T05:38:37;37.28;;;17.25;;
52512;SDS011;38422;53.172;6.974;2022-12-18T05:41:03;35.85;;;15.10;;
52512;SDS011;38422;53.172;6.974;2022-12-18T05:43:31;33.97;;;16.40;;
52512;SDS011;38422;53.172;6.974;2022-12-18T05:46:02;33.15;;;16.08;;
52512;SDS011;38422;53.172;6.974;2022-12-18T05:48:29;32.28;;;16.45;;
52512;SDS011;38422;53.172;6.974;2022-12-18T05:50:54;30.63;;;15.82;;
52512;SDS011;38422;53.172;6.974;2022-12-18T05:53:20;31.63;;;16.52;;
52512;SDS011;38422;53.172;6.974;2022-12-18T05:55:46;35.10;;;17.33;;
52512;SDS011;38422;53.172;6.974;2022-12-18T05:58:12;33.30;;;15.43;;
52512;SDS011;38422;53.172;6.974;2022-12-18T06:00:40;33.03;;;16.60;;
52512;SDS011;38422;53.172;6.974;2022-12-18T06:03:07;29.25;;;15.77;;
52512;SDS011;38422;53.172;6.974;2022-12-18T06:05:38;30.02;;;14.75;;
52512;SDS011;38422;53.172;6.974;2022-12-18T06:08:05;32.05;;;16.10;;
52512;SDS011;38422;53.172;6.974;2022-12-18T06:10:31;29.67;;;14.82;;
52512;SDS011;38422;53.172;6.974;2022-12-18T06:12:57;31.92;;;15.88;;
52512;SDS011;38422;53.172;6.974;2022-12-18T06:15:23;30.75;;;15.40;;
52512;SDS011;38422;53.172;6.974;2022-12-18T06:17:49;30.15;;;15.32;;
52512;SDS011;38422;53.172;6.974;2022-12-18T06:20:15;31.92;;;15.20;;
52512;SDS011;38422;53.172;6.974;2022-12-18T06:22:41;31.85;;;15.80;;
52512;SDS011;38422;53.172;6.974;2022-12-18T06:25:07;25.63;;;13.70;;
52512;SDS011;38422;53.172;6.974;2022-12-18T06:27:33;27.77;;;14.85;;
52512;SDS011;38422;53.172;6.974;2022-12-18T06:29:59;31.42;;;15.45;;
52512;SDS011;38422;53.172;6.974;2022-12-18T06:32:25;28.80;;;14.82;;
52512;SDS011;38422;53.172;6.974;2022-12-18T06:34:52;28.65;;;14.75;;
52512;SDS011;38422;53.172;6.974;2022-12-18T06:37:18;30.60;;;14.67;;
52512;SDS011;38422;53.172;6.974;2022-12-18T06:39:44;32.08;;;15.48;;
52512;SDS011;38422;53.172;6.974;2022-12-18T06:42:10;26.85;;;14.15;;
52512;SDS011;38422;53.172;6.974;2022-12-18T06:44:36;33.50;;;15.32;;
52512;SDS011;38422;53.172;6.974;2022-12-18T06:47:02;32.53;;;16.38;;
52512;SDS011;38422;53.172;6.974;2022-12-18T06:49:27;31.95;;;15.60;;
52512;SDS011;38422;53.172;6.974;2022-12-18T06:51:53;28.10;;;15.02;;
52512;SDS011;38422;53.172;6.974;2022-12-18T06:54:19;28.52;;;14.57;;
52512;SDS011;38422;53.172;6.974;2022-12-18T06:56:45;28.55;;;15.05;;
52512;SDS011;38422;53.172;6.974;2022-12-18T06:59:11;29.48;;;14.65;;
52512;SDS011;38422;53.172;6.974;2022-12-18T07:01:38;27.38;;;14.43;;
52512;SDS011;38422;53.172;6.974;2022-12-18T07:04:04;29.92;;;14.48;;
52512;SDS011;38422;53.172;6.974;2022-12-18T07:06:29;27.48;;;13.98;;
52512;SDS011;38422;53.172;6.974;2022-12-18T07:08:55;27.27;;;13.98;;
52512;SDS011;38422;53.172;6.974;2022-12-18T07:11:21;28.02;;;14.38;;
52512;SDS011;38422;53.172;6.974;2022-12-18T07:13:47;25.65;;;13.35;;
52512;SDS011;38422;53.172;6.974;2022-12-18T07:16:18;24.05;;;13.20;;
52512;SDS011;38422;53.172;6.974;2022-12-18T07:18:45;30.73;;;14.30;;
52512;SDS011;38422;53.172;6.974;2022-12-18T07:21:15;27.17;;;13.52;;
52512;SDS011;38422;53.172;6.974;2022-12-18T07:23:44;27.88;;;14.30;;
52512;SDS011;38422;53.172;6.974;2022-12-18T07:26:13;25.38;;;14.07;;
52512;SDS011;38422;53.172;6.974;2022-12-18T07:28:41;25.25;;;13.43;;
52512;SDS011;38422;53.172;6.974;2022-12-18T07:31:09;29.42;;;14.02;;
52512;SDS011;38422;53.172;6.974;2022-12-18T07:33:37;27.77;;;13.98;;
52512;SDS011;38422;53.172;6.974;2022-12-18T07:36:03;25.83;;;13.55;;
52512;SDS011;38422;53.172;6.974;2022-12-18T07:38:30;25.15;;;13.43;;
52512;SDS011;38422;53.172;6.974;2022-12-18T07:41:04;26.73;;;14.43;;
52512;SDS011;38422;53.172;6.974;2022-12-18T07:43:38;26.15;;;12.73;;
52512;SDS011;38422;53.172;6.974;2022-12-18T07:46:04;24.92;;;13.27;;
52512;SDS011;38422;53.172;6.974;2022-12-18T07:48:31;26.75;;;13.90;;
52512;SDS011;38422;53.172;6.974;2022-12-18T07:51:00;25.02;;;13.13;;
52512;SDS011;38422;53.172;6.974;2022-12-18T07:53:26;24.67;;;13.45;;
52512;SDS011;38422;53.172;6.974;2022-12-18T07:55:59;24.60;;;11.98;;
52512;SDS011;38422;53.172;6.974;2022-12-18T07:58:27;24.48;;;12.80;;
52512;SDS011;38422;53.172;6.974;2022-12-18T08:00:53;24.88;;;13.00;;
52512;SDS011;38422;53.172;6.974;2022-12-18T08:03:19;22.85;;;12.40;;
52512;SDS011;38422;53.172;6.974;2022-12-18T08:05:45;23.77;;;12.93;;
52512;SDS011;38422;53.172;6.974;2022-12-18T08:08:11;21.25;;;11.75;;
52512;SDS011;38422;53.172;6.974;2022-12-18T08:10:37;23.67;;;12.10;;
52512;SDS011;38422;53.172;6.974;2022-12-18T08:13:03;22.52;;;12.23;;
52512;SDS011;38422;53.172;6.974;2022-12-18T08:15:28;20.98;;;11.93;;
52512;SDS011;38422;53.172;6.974;2022-12-18T08:17:57;22.65;;;11.38;;
52512;SDS011;38422;53.172;6.974;2022-12-18T08:20:23;22.42;;;11.15;;
52512;SDS011;38422;53.172;6.974;2022-12-18T08:22:49;22.52;;;12.00;;
52512;SDS011;38422;53.172;6.974;2022-12-18T08:25:14;20.70;;;11.95;;
52512;SDS011;38422;53.172;6.974;2022-12-18T08:27:40;19.55;;;11.18;;
52512;SDS011;38422;53.172;6.974;2022-12-18T08:30:06;20.83;;;11.07;;
52512;SDS011;38422;53.172;6.974;2022-12-18T08:32:32;20.80;;;11.15;;
52512;SDS011;38422;53.172;6.974;2022-12-18T08:34:58;20.92;;;11.20;;
52512;SDS011;38422;53.172;6.974;2022-12-18T08:37:24;21.02;;;11.93;;
52512;SDS011;38422;53.172;6.974;2022-12-18T08:39:50;21.45;;;11.13;;
52512;SDS011;38422;53.172;6.974;2022-12-18T08:42:15;21.02;;;11.18;;
52512;SDS011;38422;53.172;6.974;2022-12-18T08:44:59;18.73;;;10.88;;
52512;SDS011;38422;53.172;6.974;2022-12-18T08:47:25;19.17;;;10.80;;
52512;SDS011;38422;53.172;6.974;2022-12-18T08:49:51;20.60;;;10.90;;
52512;SDS011;38422;53.172;6.974;2022-12-18T08:52:17;18.13;;;10.32;;
52512;SDS011;38422;53.172;6.974;2022-12-18T08:54:42;22.15;;;10.73;;
52512;SDS011;38422;53.172;6.974;2022-12-18T08:57:08;19.48;;;10.75;;
52512;SDS011;38422;53.172;6.974;2022-12-18T08:59:34;19.25;;;10.73;;
52512;SDS011;38422;53.172;6.974;2022-12-18T09:02:00;18.77;;;10.43;;
52512;SDS011;38422;53.172;6.974;2022-12-18T09:04:25;17.20;;;9.65;;
52512;SDS011;38422;53.172;6.974;2022-12-18T09:06:51;17.95;;;10.50;;
52512;SDS011;38422;53.172;6.974;2022-12-18T09:09:17;18.48;;;9.05;;
52512;SDS011;38422;53.172;6.974;2022-12-18T09:11:42;18.40;;;9.43;;
52512;SDS011;38422;53.172;6.974;2022-12-18T09:14:08;19.15;;;9.93;;
52512;SDS011;38422;53.172;6.974;2022-12-18T09:16:34;19.77;;;10.30;;
52512;SDS011;38422;53.172;6.974;2022-12-18T09:19:01;16.10;;;9.18;;
52512;SDS011;38422;53.172;6.974;2022-12-18T09:21:30;18.02;;;9.55;;
52512;SDS011;38422;53.172;6.974;2022-12-18T09:23:57;15.77;;;9.23;;
52512;SDS011;38422;53.172;6.974;2022-12-18T09:26:23;14.07;;;9.07;;
52512;SDS011;38422;53.172;6.974;2022-12-18T09:28:50;16.75;;;9.48;;
52512;SDS011;38422;53.172;6.974;2022-12-18T09:31:16;16.50;;;9.07;;
52512;SDS011;38422;53.172;6.974;2022-12-18T09:33:43;16.95;;;8.98;;
52512;SDS011;38422;53.172;6.974;2022-12-18T09:36:11;17.27;;;8.65;;
52512;SDS011;38422;53.172;6.974;2022-12-18T09:38:39;15.48;;;8.60;;
52512;SDS011;38422;53.172;6.974;2022-12-18T09:41:27;15.40;;;8.95;;
52512;SDS011;38422;53.172;6.974;2022-12-18T09:49:31;14.77;;;7.85;;
52512;SDS011;38422;53.172;6.974;2022-12-18T09:52:02;13.57;;;7.57;;
52512;SDS011;38422;53.172;6.974;2022-12-18T09:54:38;11.60;;;7.22;;
52512;SDS011;38422;53.172;6.974;2022-12-18T09:57:05;12.60;;;7.28;;
52512;SDS011;38422;53.172;6.974;2022-12-18T09:59:35;12.75;;;6.95;;
52512;SDS011;38422;53.172;6.974;2022-12-18T10:02:14;11.18;;;6.38;;
52512;SDS011;38422;53.172;6.974;2022-12-18T10:04:41;12.60;;;6.93;;
52512;SDS011;38422;53.172;6.974;2022-12-18T10:07:09;10.77;;;5.88;;
52512;SDS011;38422;53.172;6.974;2022-12-18T10:10:07;10.63;;;6.35;;
52512;SDS011;38422;53.172;6.974;2022-12-18T10:12:44;10.05;;;6.00;;
52512;SDS011;38422;53.172;6.974;2022-12-18T10:15:44;10.82;;;5.90;;
52512;SDS011;38422;53.172;6.974;2022-12-18T10:18:40;9.40;;;5.50;;
52512;SDS011;38422;53.172;6.974;2022-12-18T10:21:30;10.38;;;5.80;;
52512;SDS011;38422;53.172;6.974;2022-12-18T10:27:15;9.38;;;5.65;;
52512;SDS011;38422;53.172;6.974;2022-12-18T10:29:43;9.55;;;5.80;;
52512;SDS011;38422;53.172;6.974;2022-12-18T10:32:13;11.47;;;6.23;;
52512;SDS011;38422;53.172;6.974;2022-12-18T10:34:45;9.80;;;5.28;;
52512;SDS011;38422;53.172;6.974;2022-12-18T10:37:16;9.18;;;4.93;;
52512;SDS011;38422;53.172;6.974;2022-12-18T10:39:44;9.43;;;5.28;;
52512;SDS011;38422;53.172;6.974;2022-12-18T10:42:19;9.38;;;5.30;;
52512;SDS011;38422;53.172;6.974;2022-12-18T10:44:45;10.50;;;5.20;;
52512;SDS011;38422;53.172;6.974;2022-12-18T10:47:12;9.18;;;4.95;;
52512;SDS011;38422;53.172;6.974;2022-12-18T10:49:51;9.82;;;5.47;;
52512;SDS011;38422;53.172;6.974;2022-12-18T10:54:54;8.03;;;5.10;;
52512;SDS011;38422;53.172;6.974;2022-12-18T11:00:22;9.75;;;5.32;;
52512;SDS011;38422;53.172;6.974;2022-12-18T11:02:50;8.52;;;4.90;;
52512;SDS011;38422;53.172;6.974;2022-12-18T11:05:23;10.05;;;5.32;;
52512;SDS011;38422;53.172;6.974;2022-12-18T11:07:50;8.43;;;4.93;;
52512;SDS011;38422;53.172;6.974;2022-12-18T11:10:19;8.77;;;5.15;;
52512;SDS011;38422;53.172;6.974;2022-12-18T11:12:47;8.07;;;4.68;;
52512;SDS011;38422;53.172;6.974;2022-12-18T11:15:18;9.10;;;4.72;;
52512;SDS011;38422;53.172;6.974;2022-12-18T11:17:47;7.90;;;4.80;;
52512;SDS011;38422;53.172;6.974;2022-12-18T11:20:26;11.95;;;5.95;;
52512;SDS011;38422;53.172;6.974;2022-12-18T11:23:03;9.02;;;5.07;;
52512;SDS011;38422;53.172;6.974;2022-12-18T11:25:35;9.35;;;4.80;;
52512;SDS011;38422;53.172;6.974;2022-12-18T11:28:03;9.98;;;4.75;;
52512;SDS011;38422;53.172;6.974;2022-12-18T11:30:34;8.85;;;4.90;;
52512;SDS011;38422;53.172;6.974;2022-12-18T11:33:20;9.10;;;4.80;;
52512;SDS011;38422;53.172;6.974;2022-12-18T11:43:27;9.23;;;4.45;;
52512;SDS011;38422;53.172;6.974;2022-12-18T11:46:13;8.65;;;4.72;;
52512;SDS011;38422;53.172;6.974;2022-12-18T11:48:47;8.52;;;4.75;;
52512;SDS011;38422;53.172;6.974;2022-12-18T11:51:31;8.15;;;4.45;;
52512;SDS011;38422;53.172;6.974;2022-12-18T11:54:00;8.02;;;4.40;;
52512;SDS011;38422;53.172;6.974;2022-12-18T11:56:35;7.90;;;4.68;;
52512;SDS011;38422;53.172;6.974;2022-12-18T11:59:26;7.63;;;4.60;;
52512;SDS011;38422;53.172;6.974;2022-12-18T12:07:23;8.43;;;4.25;;
52512;SDS011;38422;53.172;6.974;2022-12-18T12:11:13;8.30;;;4.47;;
52512;SDS011;38422;53.172;6.974;2022-12-18T12:18:34;9.25;;;4.70;;
52512;SDS011;38422;53.172;6.974;2022-12-18T12:26:03;7.73;;;4.43;;
52512;SDS011;38422;53.172;6.974;2022-12-18T12:28:44;7.45;;;4.63;;
52512;SDS011;38422;53.172;6.974;2022-12-18T12:31:45;7.72;;;4.20;;
52512;SDS011;38422;53.172;6.974;2022-12-18T12:34:29;7.88;;;4.85;;
52512;SDS011;38422;53.172;6.974;2022-12-18T12:39:32;9.07;;;4.75;;
52512;SDS011;38422;53.172;6.974;2022-12-18T12:42:03;8.18;;;4.35;;
52512;SDS011;38422;53.172;6.974;2022-12-18T12:44:54;7.30;;;4.35;;
52512;SDS011;38422;53.172;6.974;2022-12-18T12:47:26;10.48;;;4.65;;
52512;SDS011;38422;53.172;6.974;2022-12-18T12:49:58;6.85;;;4.10;;
52512;SDS011;38422;53.172;6.974;2022-12-18T12:52:30;7.25;;;4.43;;
52512;SDS011;38422;53.172;6.974;2022-12-18T12:55:05;7.83;;;4.33;;
52512;SDS011;38422;53.172;6.974;2022-12-18T12:57:39;7.00;;;4.22;;
52512;SDS011;38422;53.172;6.974;2022-12-18T13:02:36;7.20;;;4.40;;
52512;SDS011;38422;53.172;6.974;2022-12-18T13:07:54;8.60;;;4.57;;
52512;SDS011;38422;53.172;6.974;2022-12-18T13:10:35;8.82;;;5.07;;
52512;SDS011;38422;53.172;6.974;2022-12-18T13:13:07;10.45;;;5.10;;
52512;SDS011;38422;53.172;6.974;2022-12-18T13:15:48;9.18;;;5.10;;
52512;SDS011;38422;53.172;6.974;2022-12-18T13:18:29;7.60;;;4.68;;
52512;SDS011;38422;53.172;6.974;2022-12-18T13:25:51;8.95;;;5.75;;
52512;SDS011;38422;53.172;6.974;2022-12-18T13:28:49;9.02;;;5.32;;
52512;SDS011;38422;53.172;6.974;2022-12-18T13:34:23;8.05;;;5.10;;
52512;SDS011;38422;53.172;6.974;2022-12-18T13:36:51;8.90;;;4.68;;
52512;SDS011;38422;53.172;6.974;2022-12-18T13:41:44;9.18;;;5.40;;
52512;SDS011;38422;53.172;6.974;2022-12-18T13:51:42;11.90;;;6.13;;
52512;SDS011;38422;53.172;6.974;2022-12-18T13:54:30;9.80;;;5.38;;
52512;SDS011;38422;53.172;6.974;2022-12-18T13:57:02;10.15;;;6.15;;
52512;SDS011;38422;53.172;6.974;2022-12-18T14:01:59;10.20;;;5.90;;
52512;SDS011;38422;53.172;6.974;2022-12-18T14:04:32;11.52;;;6.35;;
52512;SDS011;38422;53.172;6.974;2022-12-18T14:07:03;10.93;;;6.60;;
52512;SDS011;38422;53.172;6.974;2022-12-18T14:09:36;9.50;;;6.28;;
52512;SDS011;38422;53.172;6.974;2022-12-18T14:12:30;10.40;;;6.18;;
52512;SDS011;38422;53.172;6.974;2022-12-18T14:15:20;9.93;;;6.05;;
52512;SDS011;38422;53.172;6.974;2022-12-18T14:17:53;9.65;;;5.97;;
52512;SDS011;38422;53.172;6.974;2022-12-18T14:20:22;11.23;;;6.60;;
52512;SDS011;38422;53.172;6.974;2022-12-18T14:22:49;10.88;;;6.25;;
52512;SDS011;38422;53.172;6.974;2022-12-18T14:25:17;10.65;;;6.63;;
52512;SDS011;38422;53.172;6.974;2022-12-18T14:27:46;11.35;;;6.60;;
52512;SDS011;38422;53.172;6.974;2022-12-18T14:30:26;9.90;;;6.97;;
52512;SDS011;38422;53.172;6.974;2022-12-18T14:33:27;9.40;;;6.10;;
52512;SDS011;38422;53.172;6.974;2022-12-18T14:38:29;11.20;;;6.50;;
52512;SDS011;38422;53.172;6.974;2022-12-18T14:41:02;11.68;;;6.53;;
52512;SDS011;38422;53.172;6.974;2022-12-18T14:43:40;10.25;;;6.38;;
52512;SDS011;38422;53.172;6.974;2022-12-18T14:48:55;11.25;;;6.50;;
52512;SDS011;38422;53.172;6.974;2022-12-18T14:51:23;10.48;;;6.72;;
52512;SDS011;38422;53.172;6.974;2022-12-18T14:53:55;13.10;;;7.10;;
52512;SDS011;38422;53.172;6.974;2022-12-18T14:56:30;12.27;;;6.75;;
52512;SDS011;38422;53.172;6.974;2022-12-18T14:58:59;11.65;;;7.00;;
52512;SDS011;38422;53.172;6.974;2022-12-18T15:01:49;10.48;;;6.47;;
52512;SDS011;38422;53.172;6.974;2022-12-18T15:04:34;11.80;;;6.75;;
52512;SDS011;38422;53.172;6.974;2022-12-18T15:09:44;10.85;;;6.63;;
52512;SDS011;38422;53.172;6.974;2022-12-18T15:12:35;9.95;;;6.35;;
52512;SDS011;38422;53.172;6.974;2022-12-18T15:15:03;11.65;;;7.05;;
52512;SDS011;38422;53.172;6.974;2022-12-18T15:17:29;10.98;;;6.78;;
52512;SDS011;38422;53.172;6.974;2022-12-18T15:20:00;9.48;;;6.22;;
52512;SDS011;38422;53.172;6.974;2022-12-18T15:22:28;10.82;;;7.07;;
52512;SDS011;38422;53.172;6.974;2022-12-18T15:24:58;11.23;;;6.78;;
52512;SDS011;38422;53.172;6.974;2022-12-18T15:27:34;10.82;;;6.53;;
52512;SDS011;38422;53.172;6.974;2022-12-18T15:32:37;13.18;;;6.65;;
52512;SDS011;38422;53.172;6.974;2022-12-18T15:37:36;10.10;;;6.80;;
52512;SDS011;38422;53.172;6.974;2022-12-18T15:40:05;12.50;;;6.75;;
52512;SDS011;38422;53.172;6.974;2022-12-18T15:42:31;10.85;;;6.43;;
52512;SDS011;38422;53.172;6.974;2022-12-18T15:45:16;11.43;;;6.53;;
52512;SDS011;38422;53.172;6.974;2022-12-18T15:47:41;11.50;;;6.57;;
52512;SDS011;38422;53.172;6.974;2022-12-18T15:50:07;11.10;;;6.72;;
52512;SDS011;38422;53.172;6.974;2022-12-18T15:52:36;13.35;;;7.07;;
52512;SDS011;38422;53.172;6.974;2022-12-18T15:55:12;12.88;;;6.93;;
52512;SDS011;38422;53.172;6.974;2022-12-18T15:57:59;10.80;;;6.65;;
52512;SDS011;38422;53.172;6.974;2022-12-18T16:00:25;10.43;;;6.25;;
52512;SDS011;38422;53.172;6.974;2022-12-18T16:02:52;11.88;;;7.03;;
52512;SDS011;38422;53.172;6.974;2022-12-18T16:05:19;9.63;;;6.43;;
52512;SDS011;38422;53.172;6.974;2022-12-18T16:07:47;9.73;;;6.13;;
52512;SDS011;38422;53.172;6.974;2022-12-18T16:10:13;10.18;;;6.03;;
52512;SDS011;38422;53.172;6.974;2022-12-18T16:12:39;10.35;;;6.00;;
52512;SDS011;38422;53.172;6.974;2022-12-18T16:15:05;10.60;;;6.22;;
52512;SDS011;38422;53.172;6.974;2022-12-18T16:17:32;10.48;;;5.70;;
52512;SDS011;38422;53.172;6.974;2022-12-18T16:19:58;10.10;;;6.10;;
52512;SDS011;38422;53.172;6.974;2022-12-18T16:22:28;9.60;;;6.20;;
52512;SDS011;38422;53.172;6.974;2022-12-18T16:24:55;10.13;;;5.90;;
52512;SDS011;38422;53.172;6.974;2022-12-18T16:27:21;9.77;;;5.60;;
52512;SDS011;38422;53.172;6.974;2022-12-18T16:29:48;9.82;;;6.32;;
52512;SDS011;38422;53.172;6.974;2022-12-18T16:32:15;8.88;;;5.75;;
52512;SDS011;38422;53.172;6.974;2022-12-18T16:34:43;10.75;;;5.85;;
52512;SDS011;38422;53.172;6.974;2022-12-18T16:37:09;8.90;;;5.32;;
52512;SDS011;38422;53.172;6.974;2022-12-18T16:39:37;9.60;;;5.72;;
52512;SDS011;38422;53.172;6.974;2022-12-18T16:42:05;10.53;;;5.43;;